1969 Tropical Depression NOT_NAMED (1969101S10165)


IBTrACS version v04r00. Visit IBTrACS website for data access.
Please direct all questions to the IBTrACS Q and A forum

Storm track - Intensity - Wind Radii - Intensity Data - Source Data - All data

Summary Information

Storm ID 1969101S10165
Start Apr 11 05Z
Max Intensity 30 kt (Apr 13 17Z), 996 mb (Apr 16 09Z)
End Apr 16 17Z
ATCF IDs ,SH341969
Track status Best track data.

Storm track plot

Map of storm track

Intensity plots

Map of storm track

Radial wind information

No radial wind information for this storm


Position and Intensity Table

BASIN ISO_TIME_________ NATURE LAT LON WMO PRES USA WIND BOM PRES DS824 WIND TD9636 WIND
degrees north degrees east mb kts mb kts kts
SP 1969-04-11 05:00:00 NR -10.40 165.10 15
SP 06:00:00 TS -10.48 165.08 15 15 14
SP 09:00:00 TS -10.64 164.94 12 12 13
SP 11:00:00 TS -10.74 164.85 1004 10 1004 10 12
SP 12:00:00 TS -10.79 164.80 10 1004 10 12
SP 14:00:00 TS -10.94 164.68 1004 10 1004 10 11
SP 15:00:00 TS -11.02 164.62 10 1003 10 10
SP 17:00:00 TS -11.20 164.48 1003 10 1003 10 10
SP 18:00:00 TS -11.30 164.41 10 1003 10 9
SP 20:00:00 TS -11.48 164.26 1003 8 1003 8 8
SP 21:00:00 TS -11.57 164.19 7 1003 7 8
SP 23:00:00 TS -11.75 164.06 1003 5 1003 5 7
SP 1969-04-12 00:00:00 TS -11.83 164.00 5 1003 5 7
SP 02:00:00 TS -11.98 163.88 1003 5 1003 5 6
SP 03:00:00 TS -12.06 163.81 5 1003 5 5
SP 05:00:00 TS -12.20 163.69 1003 5 1003 5 5
SP 06:00:00 TS -12.26 163.64 5 1003 5 5
SP 08:00:00 TS -12.38 163.57 1003 5 1003 5 6
SP 09:00:00 TS -12.44 163.53 5 1003 5 6
SP 11:00:00 TS -12.58 163.47 1004 5 1004 5 7
SP 12:00:00 TS -12.64 163.44 5 1003 5 7
SP 14:00:00 TS -12.78 163.35 1003 6 1003 6 8
SP 15:00:00 TS -12.85 163.30 7 1002 7 9
SP 17:00:00 TS -13.01 163.19 1002 9 1002 9 10
SP 18:00:00 TS -13.09 163.14 10 1002 10 10
SP 20:00:00 TS -13.25 163.05 1002 11 1002 11 12
SP 21:00:00 TS -13.33 163.01 12 1002 12 13
SP 23:00:00 TS -13.51 162.91 1003 14 1003 14 15
SP 1969-04-13 00:00:00 TS -13.61 162.84 15 1002 15 15
SP 02:00:00 TS -13.84 162.69 1002 16 1002 16 17
SP 03:00:00 TS -13.95 162.62 17 1001 17 18
SP 05:00:00 TS -14.19 162.48 1001 19 1001 19 20
SP 06:00:00 TS -14.30 162.42 20 1001 20 20
SP 08:00:00 TS -14.52 162.30 1001 21 1001 21 22
SP 09:00:00 TS -14.64 162.24 22 1001 22 23
SP 11:00:00 TS -14.88 162.13 1002 24 1002 24 25
SP 12:00:00 TS -15.01 162.07 25 1001 25 25
SP 14:00:00 TS -15.27 161.94 1001 26 1001 26 27
SP 15:00:00 TS -15.41 161.87 27 1000 27 28
SP 17:00:00 TS -15.69 161.70 1000 29 1000 29 30
SP 18:00:00 TS -15.84 161.59 30 1000 30 30
SP 20:00:00 TS -16.14 161.35 1000 30 1000 30 30
SP 21:00:00 TS -16.30 161.22 30 1000 30 30
SP 23:00:00 TS -16.61 160.96 1001 30 1001 30 30
SP 1969-04-14 00:00:00 TS -16.78 160.81 30 1001 30 30
SP 02:00:00 TS -17.11 160.53 1001 30 1001 30 30
SP 03:00:00 TS -17.27 160.39 30 1001 30 30
SP 05:00:00 TS -17.61 160.12 1001 30 1001 30 30
SP 06:00:00 TS -17.79 159.99 30 1000 30 30
SP 08:00:00 TS -18.17 159.70 1000 30 1000 30 30
SP 09:00:00 TS -18.37 159.55 30 1000 30 30
SP 11:00:00 TS -18.79 159.24 1000 30 1000 30 30
SP 12:00:00 TS -19.01 159.09 30 1000 30 30
SP 14:00:00 TS -19.49 158.82 1000 30 1000 30 30
SP 15:00:00 TS -19.75 158.69 30 1000 30 30
SP 17:00:00 TS -20.31 158.41 1001 30 1001 30 30
SP 18:00:00 TS -20.63 158.25 30 1001 30 30
SP 20:00:00 TS -21.35 157.88 1001 30 1001 30 30
SP 21:00:00 TS -21.73 157.70 30 1001 30 30
SP 23:00:00 TS -22.46 157.37 1001 30 1001 30 30
SP 1969-04-15 00:00:00 TS -22.77 157.23 30 1001 30 30
SP 02:00:00 TS -23.28 157.02 1001 30 1001 30 30
SP 03:00:00 TS -23.53 156.93 30 1001 30 30
SP 05:00:00 TS -24.01 156.78 1001 30 1001 30 30
SP 06:00:00 TS -24.26 156.71 30 1001 30 30
SP 08:00:00 TS -24.77 156.55 1001 30 1001 30 30
SP 09:00:00 TS -25.03 156.48 30 1001 30 30
SP 11:00:00 TS -25.56 156.38 1002 30 1002 30 30
SP 12:00:00 TS -25.84 156.36 30 1002 30 30
SP 14:00:00 TS -26.43 156.38 1002 30 1002 30 30
SP 15:00:00 TS -26.73 156.41 30 1002 30 30
SP 17:00:00 TS -27.30 156.49 1002 30 1002 30 30
SP 18:00:00 TS -27.56 156.56 30 1001 30 28
SP 20:00:00 TS -28.05 156.70 1001 26 1001 26 26
SP 21:00:00 TS -28.27 156.79 25 1001 25 25
SP 23:00:00 TS -28.71 157.01 1001 21 1001 21 22
SP 1969-04-16 00:00:00 TS -28.93 157.16 20 1000 20 21
SP 02:00:00 TS -29.38 157.49 1000 18 1000 18 18
SP 03:00:00 TS -29.60 157.66 17 999 17 17
SP 05:00:00 TS -30.01 158.01 998 15 998 15 15
SP 06:00:00 TS -30.19 158.20 15 997 15 15
SP 08:00:00 TS -30.50 158.56 997 15 997 15 15
SP 09:00:00 TS -30.65 158.75 15 996 15 15
SP 11:00:00 TS -30.92 159.10 996 15 996 15 15
SP 12:00:00 TS -31.04 159.27 15 996 15 15
SP 14:00:00 NR -31.25 159.55 996 996 15
SP 15:00:00 NR -31.33 159.69 996 15
SP 17:00:00 NR -31.50 160.00 996 996 15

Source Information

Agency Information
USA bsh341969.txt
TOKYO
CMA
HKO
NEWDELHI
REUNION
BOM IDCKMSTM0S.csv:Line=5388:UNNAMED
NADI
WELLINGTON
DS824 s_hem.dat:1102:34P
TD9636 cons_worldwide_trop_cyclone_18710101-19891231-006:Line=8267
TD9635
NEUMANN
MLC

All available IBTrACS Data

SEASON BASIN SUBBASIN ISO_TIME_________ NATURE LAT LON WMO PRES WMO AGENCY DIST2LAND LANDFALL IFLAG USA AGENCY USA ATCF_ID USA LAT USA LON USA WIND USA SSHS BOM LAT BOM LON BOM PRES DS824 LAT DS824 LON DS824 STAGE DS824 WIND TD9636 LAT TD9636 LON TD9636 STAGE TD9636 WIND STORM SPEED STORM DIR
Year degrees north degrees east mb km km degrees north degrees east kts 1 degrees north degrees east mb degrees north degrees east kts degrees north degrees east kts kts degrees
1969 SP MM 1969-04-11 05:00:00 NR -10.40 165.10 308 307 __________O___ -1 -10.40 165.10 1 15 5 0
1969 SP MM 06:00:00 TS -10.48 165.08 307 295 O________OP___ jtwc_sh SH341969 -10.50 165.10 15 -1 -10.50 165.10 TC 15 -10.46 165.06 1 14 4 213
1969 SP MM 09:00:00 TS -10.64 164.94 284 284 P________PP___ SH341969 -10.63 164.96 12 -1 -10.63 164.96 TC 12 -10.65 164.92 1 13 4 221
1969 SP MM 11:00:00 TS -10.74 164.85 1004 bom 284 273 P_____O__PP___ SH341969 -10.74 164.86 10 -1 -10.60 164.90 1004 -10.74 164.86 TC 10 -10.77 164.83 1 12 4 223
1969 SP MM 12:00:00 TS -10.79 164.80 273 262 O_____P__OP___ jtwc_sh SH341969 -10.80 164.80 10 -1 -10.70 164.83 1004 -10.80 164.80 TC 10 -10.84 164.78 1 12 5 219
1969 SP MM 14:00:00 TS -10.94 164.68 1004 bom 262 252 P_____O__PP___ SH341969 -10.95 164.67 10 -1 -10.90 164.70 1004 -10.95 164.67 TC 10 -10.98 164.67 1 11 6 218
1969 SP MM 15:00:00 TS -11.02 164.62 252 242 P_____P__PP___ SH341969 -11.04 164.61 10 -1 -11.00 164.64 1003 -11.04 164.61 TC 10 -11.05 164.62 1 10 7 217
1969 SP MM 17:00:00 TS -11.20 164.48 1003 bom 244 233 P_____O__PO___ SH341969 -11.21 164.47 10 -1 -11.20 164.50 1003 -11.21 164.47 TC 10 -11.20 164.50 1 10 7 217
1969 SP MM 18:00:00 TS -11.30 164.41 236 228 O_____P__OP___ jtwc_sh SH341969 -11.30 164.40 10 -1 -11.30 164.40 1003 -11.30 164.40 TC 10 -11.28 164.44 1 9 7 218
1969 SP MM 20:00:00 TS -11.48 164.26 1003 bom 231 221 P_____O__PP___ SH341969 -11.47 164.27 8 -1 -11.50 164.20 1003 -11.47 164.27 TC 8 -11.44 164.30 1 8 7 217
1969 SP MM 21:00:00 TS -11.57 164.19 225 215 P_____P__PP___ SH341969 -11.55 164.20 7 -1 -11.61 164.12 1003 -11.55 164.20 TC 7 -11.53 164.23 1 8 7 216
1969 SP MM 23:00:00 TS -11.75 164.06 1003 bom 226 216 P_____O__PP___ SH341969 -11.72 164.07 5 -1 -11.80 164.00 1003 -11.72 164.07 TC 5 -11.70 164.09 1 7 6 215
1969 SP MM 1969-04-12 00:00:00 TS -11.83 164.00 216 213 O_____P__OP___ jtwc_sh SH341969 -11.80 164.00 5 -1 -11.87 163.96 1003 -11.80 164.00 TC 5 -11.79 164.02 1 7 6 217
1969 SP MM 02:00:00 TS -11.98 163.88 1003 bom 220 211 P_____O__PP___ SH341969 -11.97 163.86 5 -1 -12.00 163.90 1003 -11.97 163.86 TC 5 -11.96 163.89 1 6 6 219
1969 SP MM 03:00:00 TS -12.06 163.81 218 210 P_____P__PP___ SH341969 -12.06 163.79 5 -1 -12.07 163.84 1003 -12.06 163.79 TC 5 -12.04 163.82 1 5 6 220
1969 SP MM 05:00:00 TS -12.20 163.69 1003 bom 218 218 P_____O__PO___ SH341969 -12.22 163.66 5 -1 -12.20 163.70 1003 -12.22 163.66 TC 5 -12.20 163.70 1 5 5 219
1969 SP MM 06:00:00 TS -12.26 163.64 219 219 O_____P__OP___ jtwc_sh SH341969 -12.30 163.60 5 -1 -12.24 163.66 1003 -12.30 163.60 TC 5 -12.27 163.65 1 5 4 214
1969 SP MM 08:00:00 TS -12.38 163.57 1003 bom 228 221 P_____O__PP___ SH341969 -12.44 163.52 5 -1 -12.30 163.60 1003 -12.44 163.52 TC 5 -12.40 163.56 1 6 4 209
1969 SP MM 09:00:00 TS -12.44 163.53 221 221 P_____P__PP___ SH341969 -12.51 163.49 5 -1 -12.36 163.57 1003 -12.51 163.49 TC 5 -12.46 163.52 1 6 4 207
1969 SP MM 11:00:00 TS -12.58 163.47 1004 bom 240 234 P_____O__PP___ SH341969 -12.64 163.43 5 -1 -12.50 163.50 1004 -12.64 163.43 TC 5 -12.58 163.44 1 7 4 206
1969 SP MM 12:00:00 TS -12.64 163.44 234 234 O_____P__OP___ jtwc_sh SH341969 -12.70 163.40 5 -1 -12.56 163.47 1003 -12.70 163.40 TC 5 -12.65 163.40 1 7 5 211
1969 SP MM 14:00:00 TS -12.78 163.35 1003 bom 254 249 P_____O__PP___ SH341969 -12.82 163.31 6 -1 -12.70 163.40 1003 -12.82 163.31 TC 6 -12.78 163.33 1 8 5 212
1969 SP MM 15:00:00 TS -12.85 163.30 259 254 P_____P__PP___ SH341969 -12.89 163.26 7 -1 -12.80 163.34 1002 -12.89 163.26 TC 7 -12.85 163.29 1 9 6 213
1969 SP MM 17:00:00 TS -13.01 163.19 1002 bom 265 265 P_____O__PO___ SH341969 -13.02 163.15 9 -1 -13.00 163.20 1002 -13.02 163.15 TC 9 -13.00 163.20 1 10 6 213
1969 SP MM 18:00:00 TS -13.09 163.14 271 271 O_____P__OP___ jtwc_sh SH341969 -13.10 163.10 10 -1 -13.07 163.16 1002 -13.10 163.10 TC 10 -13.08 163.15 1 10 5 210
1969 SP MM 20:00:00 TS -13.25 163.05 1002 bom 282 282 P_____O__PP___ SH341969 -13.28 163.01 11 -1 -13.20 163.10 1002 -13.28 163.01 TC 11 -13.26 163.04 1 12 5 209
1969 SP MM 21:00:00 TS -13.33 163.01 290 290 P_____P__PP___ SH341969 -13.38 162.96 12 -1 -13.26 163.08 1002 -13.38 162.96 TC 12 -13.35 162.99 1 13 6 208
1969 SP MM 23:00:00 TS -13.51 162.91 1003 bom 309 309 P_____O__PP___ SH341969 -13.59 162.86 14 -1 -13.40 163.00 1003 -13.59 162.86 TC 14 -13.55 162.87 1 15 7 209
1969 SP MM 1969-04-13 00:00:00 TS -13.61 162.84 318 318 O_____P__OP___ jtwc_sh SH341969 -13.70 162.80 15 -1 -13.52 162.91 1002 -13.70 162.80 TC 15 -13.65 162.81 1 15 8 213
1969 SP MM 02:00:00 TS -13.84 162.69 1002 bom 338 338 P_____O__PP___ SH341969 -13.89 162.67 16 -1 -13.80 162.70 1002 -13.89 162.67 TC 16 -13.86 162.69 1 17 8 212
1969 SP MM 03:00:00 TS -13.95 162.62 359 359 P_____P__PP___ SH341969 -13.99 162.60 17 -1 -13.94 162.63 1001 -13.99 162.60 TC 17 -13.97 162.63 1 18 8 210
1969 SP MM 05:00:00 TS -14.19 162.48 1001 bom 381 380 P_____O__PO___ SH341969 -14.19 162.46 19 -1 -14.20 162.50 1001 -14.19 162.46 TC 19 -14.20 162.50 1 20 8 210
1969 SP MM 06:00:00 TS -14.30 162.42 392 392 O_____P__OP___ jtwc_sh SH341969 -14.30 162.40 20 -1 -14.30 162.43 1001 -14.30 162.40 TC 20 -14.31 162.45 1 20 8 208
1969 SP MM 08:00:00 TS -14.52 162.30 1001 bom 414 414 P_____O__PP___ SH341969 -14.52 162.30 21 -1 -14.50 162.30 1001 -14.52 162.30 TC 21 -14.54 162.34 1 22 8 206
1969 SP MM 09:00:00 TS -14.64 162.24 425 425 P_____P__PP___ SH341969 -14.63 162.26 22 -1 -14.63 162.23 1001 -14.63 162.26 TC 22 -14.65 162.28 1 23 8 205
1969 SP MM 11:00:00 TS -14.88 162.13 1002 bom 459 459 P_____O__PP___ SH341969 -14.87 162.16 24 -1 -14.90 162.10 1002 -14.87 162.16 TC 24 -14.90 162.17 1 25 8 205
1969 SP MM 12:00:00 TS -15.01 162.07 470 470 O_____P__OP___ jtwc_sh SH341969 -15.00 162.10 25 -1 -15.03 162.03 1001 -15.00 162.10 TC 25 -15.02 162.10 1 25 9 206
1969 SP MM 14:00:00 TS -15.27 161.94 1001 bom 497 497 P_____O__PP___ SH341969 -15.25 161.97 26 -1 -15.30 161.90 1001 -15.25 161.97 TC 26 -15.28 161.96 1 27 9 206
1969 SP MM 15:00:00 TS -15.41 161.87 498 498 P_____P__PP___ SH341969 -15.38 161.89 27 -1 -15.43 161.84 1000 -15.38 161.89 TC 27 -15.42 161.88 1 28 10 208
1969 SP MM 17:00:00 TS -15.69 161.70 1000 bom 524 524 P_____O__PO___ SH341969 -15.66 161.71 29 -1 -15.70 161.70 1000 -15.66 161.71 TC 29 -15.70 161.70 1 30 10 211
1969 SP MM 18:00:00 TS -15.84 161.59 537 537 O_____P__OP___ jtwc_sh SH341969 -15.80 161.60 30 -1 -15.86 161.58 1000 -15.80 161.60 TC 30 -15.84 161.59 1 30 11 217
1969 SP MM 20:00:00 TS -16.14 161.35 1000 bom 545 533 P_____O__PP___ SH341969 -16.08 161.36 30 -1 -16.20 161.30 1000 -16.08 161.36 TC 30 -16.11 161.36 1 30 12 218
1969 SP MM 21:00:00 TS -16.30 161.22 533 518 P_____P__PP___ SH341969 -16.23 161.22 30 -1 -16.37 161.20 1000 -16.23 161.22 TC 30 -16.26 161.23 1 30 12 218
1969 SP MM 23:00:00 TS -16.61 160.96 1001 bom 518 515 P_____O__PP___ SH341969 -16.54 160.94 30 -1 -16.70 161.00 1001 -16.54 160.94 TC 30 -16.56 160.97 1 30 12 219
1969 SP MM 1969-04-14 00:00:00 TS -16.78 160.81 515 506 O_____P__OP___ jtwc_sh SH341969 -16.70 160.80 30 -1 -16.87 160.84 1001 -16.70 160.80 TC 30 -16.72 160.83 1 30 13 220
1969 SP MM 02:00:00 TS -17.11 160.53 1001 bom 513 506 P_____O__PP___ SH341969 -17.05 160.54 30 -1 -17.20 160.50 1001 -17.05 160.54 TC 30 -17.05 160.54 1 30 13 219
1969 SP MM 03:00:00 TS -17.27 160.39 506 500 P_____P__PP___ SH341969 -17.23 160.41 30 -1 -17.33 160.36 1001 -17.23 160.41 TC 30 -17.23 160.39 1 30 13 218
1969 SP MM 05:00:00 TS -17.61 160.12 1001 bom 509 502 P_____O__PO___ SH341969 -17.61 160.14 30 -1 -17.60 160.10 1001 -17.61 160.14 TC 30 -17.60 160.10 1 30 13 217
1969 SP EA 06:00:00 TS -17.79 159.99 504 501 O_____P__OP___ jtwc_sh SH341969 -17.80 160.00 30 -1 -17.78 159.97 1000 -17.80 160.00 TC 30 -17.79 159.96 1 30 14 216
1969 SP EA 08:00:00 TS -18.17 159.70 1000 bom 508 508 P_____O__PP___ SH341969 -18.17 159.70 30 -1 -18.20 159.70 1000 -18.17 159.70 TC 30 -18.18 159.68 1 30 14 216
1969 SP EA 09:00:00 TS -18.37 159.55 517 513 P_____P__PP___ SH341969 -18.36 159.55 30 -1 -18.39 159.54 1000 -18.36 159.55 TC 30 -18.38 159.53 1 30 15 215
1969 SP EA 11:00:00 TS -18.79 159.24 1000 bom 530 526 P_____O__PP___ SH341969 -18.77 159.25 30 -1 -18.80 159.20 1000 -18.77 159.25 TC 30 -18.82 159.25 1 30 16 214
1969 SP EA 12:00:00 TS -19.01 159.09 533 530 O_____P__OP___ jtwc_sh SH341969 -19.00 159.10 30 -1 -19.02 159.06 1000 -19.00 159.10 TC 30 -19.04 159.11 1 30 16 209
1969 SP EA 14:00:00 TS -19.49 158.82 1000 bom 550 549 P_____O__PP___ SH341969 -19.49 158.83 30 -1 -19.50 158.80 1000 -19.49 158.83 TC 30 -19.52 158.82 1 30 17 208
1969 SP EA 15:00:00 TS -19.75 158.69 556 556 P_____P__PP___ SH341969 -19.75 158.70 30 -1 -19.73 158.68 1000 -19.75 158.70 TC 30 -19.77 158.68 1 30 18 205
1969 SP EA 17:00:00 TS -20.31 158.41 1001 bom 583 583 P_____O__PO___ SH341969 -20.31 158.44 30 -1 -20.30 158.40 1001 -20.31 158.44 TC 30 -20.30 158.40 1 30 20 205
1969 SP EA 18:00:00 TS -20.63 158.25 605 605 O_____P__OP___ jtwc_sh SH341969 -20.60 158.30 30 -1 -20.69 158.19 1001 -20.60 158.30 TC 30 -20.58 158.25 1 30 23 205
1969 SP EA 20:00:00 TS -21.35 157.88 1001 bom 604 567 P_____O__PP___ SH341969 -21.22 158.00 30 -1 -21.60 157.70 1001 -21.22 158.00 TC 30 -21.17 157.94 1 30 24 205
1969 SP EA 21:00:00 TS -21.73 157.70 567 496 P_____P__PP___ SH341969 -21.54 157.84 30 -1 -22.11 157.47 1001 -21.54 157.84 TC 30 -21.48 157.79 1 30 24 203
1969 SP EA 23:00:00 TS -22.46 157.37 1001 bom 490 469 P_____O__PP___ SH341969 -22.18 157.54 30 -1 -23.00 157.10 1001 -22.18 157.54 TC 30 -22.11 157.50 1 30 23 203
1969 SP EA 1969-04-15 00:00:00 TS -22.77 157.23 455 416 O_____P__OP___ jtwc_sh SH341969 -22.50 157.40 30 -1 -23.24 157.00 1001 -22.50 157.40 TC 30 -22.42 157.36 1 30 18 201
1969 SP EA 02:00:00 TS -23.28 157.02 1001 bom 411 392 P_____O__PP___ SH341969 -23.11 157.13 30 -1 -23.50 156.90 1001 -23.11 157.13 TC 30 -23.06 157.11 1 30 16 200
1969 SP EA 03:00:00 TS -23.53 156.93 392 361 P_____P__PP___ SH341969 -23.41 157.01 30 -1 -23.66 156.86 1001 -23.41 157.01 TC 30 -23.38 156.99 1 30 15 197
1969 SP EA 05:00:00 TS -24.01 156.78 1001 bom 361 345 P_____O__PO___ SH341969 -24.01 156.79 30 -1 -24.00 156.80 1001 -24.01 156.79 TC 30 -24.00 156.80 1 30 15 195
1969 SP EA 06:00:00 TS -24.26 156.71 342 324 O_____P__OP___ jtwc_sh SH341969 -24.30 156.70 30 -1 -24.19 156.74 1001 -24.30 156.70 TC 30 -24.30 156.71 1 30 16 196
1969 SP EA 08:00:00 TS -24.77 156.55 1001 bom 313 312 P_____O__PP___ SH341969 -24.88 156.51 30 -1 -24.60 156.60 1001 -24.88 156.51 TC 30 -24.88 156.56 1 30 16 195
1969 SP EA 09:00:00 TS -25.03 156.48 312 302 P_____P__PP___ SH341969 -25.16 156.43 30 -1 -24.81 156.52 1001 -25.16 156.43 TC 30 -25.16 156.50 1 30 16 191
1969 SP EA 11:00:00 TS -25.56 156.38 1002 bom 308 308 P_____O__PP___ SH341969 -25.72 156.32 30 -1 -25.30 156.40 1002 -25.72 156.32 TC 30 -25.72 156.42 1 30 17 187
1969 SP EA 12:00:00 TS -25.84 156.36 314 314 O_____P__OP___ jtwc_sh SH341969 -26.00 156.30 30 -1 -25.61 156.41 1002 -26.00 156.30 TC 30 -26.00 156.40 1 30 18 0
1969 SP EA 14:00:00 TS -26.43 156.38 1002 bom 326 319 P_____O__PP___ SH341969 -26.55 156.32 30 -1 -26.30 156.50 1002 -26.55 156.32 TC 30 -26.53 156.39 1 30 18 178
1969 SP EA 15:00:00 TS -26.73 156.41 319 302 P_____P__PP___ SH341969 -26.82 156.37 30 -1 -26.65 156.50 1002 -26.82 156.37 TC 30 -26.79 156.41 1 30 18 174
1969 SP EA 17:00:00 TS -27.30 156.49 1002 bom 302 295 P_____O__PO___ SH341969 -27.35 156.51 30 -1 -27.30 156.50 1002 -27.35 156.51 TC 30 -27.30 156.50 1 30 17 171
1969 SP EA 18:00:00 TS -27.56 156.56 302 295 O_____P__OP___ jtwc_sh SH341969 -27.60 156.60 30 -1 -27.56 156.52 1001 -27.60 156.60 TC 30 -27.56 156.56 1 28 15 166
1969 SP EA 20:00:00 TS -28.05 156.70 1001 bom 304 303 P_____O__PP___ SH341969 -28.09 156.79 26 -1 -28.00 156.60 1001 -28.09 156.79 TC 26 -28.07 156.72 1 26 15 164
1969 SP EA 21:00:00 TS -28.27 156.79 313 313 P_____P__PP___ SH341969 -28.33 156.91 25 -1 -28.20 156.64 1001 -28.33 156.91 TC 25 -28.31 156.83 1 25 14 158
1969 SP EA 23:00:00 TS -28.71 157.01 1001 bom 331 331 P_____O__PP___ SH341969 -28.78 157.16 21 -1 -28.60 156.80 1001 -28.78 157.16 TC 21 -28.78 157.07 1 22 15 154
1969 SP EA 1969-04-16 00:00:00 TS -28.93 157.16 350 350 O_____P__OP___ jtwc_sh SH341969 -29.00 157.30 20 -1 -28.83 156.97 1000 -29.00 157.30 TC 20 -29.01 157.21 1 21 16 148
1969 SP EA 02:00:00 TS -29.38 157.49 1000 bom 382 382 P_____O__PP___ SH341969 -29.44 157.58 18 -1 -29.30 157.40 1000 -29.44 157.58 TC 18 -29.44 157.51 1 18 16 147
1969 SP EA 03:00:00 TS -29.60 157.66 404 404 P_____P__PP___ SH341969 -29.64 157.74 17 -1 -29.54 157.59 999 -29.64 157.74 TC 17 -29.63 157.67 1 17 16 144
1969 SP EA 05:00:00 TS -30.01 158.01 998 bom 442 442 P_____O__PO___ SH341969 -30.03 158.04 15 -1 -30.00 158.00 998 -30.03 158.04 TC 15 -30.00 158.00 1 15 15 142
1969 SP EA 06:00:00 TS -30.19 158.20 467 467 O_____P__OP___ jtwc_sh SH341969 -30.20 158.20 15 -1 -30.18 158.23 997 -30.20 158.20 TC 15 -30.17 158.17 1 15 14 136
1969 SP EA 08:00:00 TS -30.50 158.56 997 bom 512 512 P_____O__PP___ SH341969 -30.50 158.50 15 -1 -30.50 158.70 997 -30.50 158.50 TC 15 -30.47 158.50 1 15 13 134
1969 SP EA 09:00:00 TS -30.65 158.75 523 523 P_____P__PP___ SH341969 -30.64 158.65 15 -1 -30.68 158.92 996 -30.64 158.65 TC 15 -30.60 158.66 1 15 12 132
1969 SP EA 11:00:00 TS -30.92 159.10 996 bom 566 566 P_____O__PP___ SH341969 -30.88 158.95 15 -1 -31.00 159.30 996 -30.88 158.95 TC 15 -30.86 159.00 1 15 12 132
1969 SP EA 12:00:00 TS -31.04 159.27 587 587 O_____P__OP___ jtwc_sh SH341969 -31.00 159.10 15 -1 -31.12 159.42 996 -31.00 159.10 TC 15 -30.97 159.16 1 15 10 130
1969 SP EA 14:00:00 NR -31.25 159.55 996 bom 608 608 ______O___P___ SH341969 -1 -31.30 159.60 996 TC -31.19 159.50 1 15 9 129
1969 SP EA 15:00:00 NR -31.33 159.69 627 627 ______P___P___ SH341969 -1 -31.37 159.72 996 TC -31.30 159.66 1 15 9 123
1969 SP MM 17:00:00 NR -31.50 160.00 996 bom 655 ______O___O___ SH341969 -1 -31.50 160.00 996 TC -31.50 160.00 1 15 9 122